Sandy Lake, Pennsylvania
Current Conditions -  °F | °C
As of 10:35 AM on Thursday 30 Oct 2014 (Local Time) from KFKL Reporting Station
Overcast Overcast  
Wind Chill: 40°   Ceiling: 1000
Heat Index: 43°   Visibility: 7mi
Dew Point: 36°   Wind: 5mph
Humidity: 76%   Direction: 360°N
Pressure: 30.1"   Gusts: NA
Location:  41.35°N, 80.08°W
Report Text: KFKL 301435Z 36004KT 7SM BKN010 BKN016 OVC042 06/02 A3010 RMK AO1
Loading
Personal Weather Stations






























Interactive Weather Map
Tropical Storm Tracking
New forecast layout! Learn more

10-Day Weather Forecast

Advertisements
Track Severe Weather on mobile